Time;durP1;ratioP1;P1;durP2;ratioP2;P2;SDS_P1;SDS_P2;PMS_P1;PMS_P2;Temp;Humidity;BMP_temperature;BMP_pressure;BME280_temperature;BME280_humidity;BME280_pressure;Samples;Min_cycle;Max_cycle;Signal;HPM_P1;HPM_P2
2024/03/19 00:00:49;;;;;;;;;3.33;2.67;;;;;23.69;44.77;101586.06;4901563;28;45403;-74
2024/03/19 00:03:14;;;;;;;;;3.67;2.00;;;;;23.72;44.68;101589.19;4901664;29;45383;-74
2024/03/19 00:05:40;;;;;;;;;3.00;3.00;;;;;23.81;44.58;101599.78;4901562;28;45390;-74
2024/03/19 00:08:06;;;;;;;;;4.67;3.00;;;;;23.74;44.85;101591.69;4901371;28;45417;-74
2024/03/19 00:10:31;;;;;;;;;4.00;4.00;;;;;23.80;44.53;101596.31;4900113;29;45459;-74
2024/03/19 00:12:57;;;;;;;;;4.00;2.67;;;;;23.78;44.92;101595.66;4901282;28;45262;-74
2024/03/19 00:15:22;;;;;;;;;3.00;3.00;;;;;23.72;44.93;101585.72;4901338;28;45451;-74
2024/03/19 00:17:48;;;;;;;;;3.00;3.00;;;;;23.71;44.94;101590.19;4901380;28;46176;-74
2024/03/19 00:20:13;;;;;;;;;3.33;3.33;;;;;23.76;44.62;101588.88;4901312;28;45367;-74
2024/03/19 00:22:39;;;;;;;;;4.00;2.00;;;;;23.78;45.03;101595.66;4901383;28;45182;-73
2024/03/19 00:25:08;;;;;;;;;3.33;3.33;;;;;23.78;44.61;101594.81;4901443;28;45231;-73
2024/03/19 00:27:33;;;;;;;;;4.00;4.00;;;;;23.63;44.41;101572.47;4900894;29;46140;-74
2024/03/19 00:30:00;;;;;;;;;4.00;4.00;;;;;23.77;44.33;101599.31;4900929;29;45917;-74
2024/03/19 00:32:26;;;;;;;;;4.33;2.00;;;;;23.77;44.72;101598.47;4901228;28;45372;-74
2024/03/19 00:34:52;;;;;;;;;3.33;3.00;;;;;23.36;44.68;101540.03;4901188;28;45402;-74
2024/03/19 00:37:17;;;;;;;;;4.00;2.67;;;;;23.68;44.62;101590.53;4900897;28;45494;-74
2024/03/19 00:39:43;;;;;;;;;5.33;4.00;;;;;23.74;44.46;101600.47;4900993;28;45332;-74
2024/03/19 00:42:08;;;;;;;;;6.67;6.00;;;;;23.70;44.53;101591.22;4900737;28;45229;-75
2024/03/19 00:44:33;;;;;;;;;6.00;3.67;;;;;23.63;44.29;101582.25;4915826;28;45571;-74
2024/03/19 00:46:59;;;;;;;;;6.33;4.00;;;;;23.74;43.99;101591.69;4900839;28;46949;-74
2024/03/19 00:49:26;;;;;;;;;2.00;2.00;;;;;23.71;44.40;101587.53;4900900;28;45424;-74
2024/03/19 00:51:51;;;;;;;;;4.00;3.00;;;;;23.71;44.58;101590.19;4900413;28;45455;-74
2024/03/19 00:54:17;;;;;;;;;4.67;4.00;;;;;23.69;44.36;101583.41;4900839;28;45450;-74
2024/03/19 00:56:43;;;;;;;;;5.00;5.00;;;;;23.62;44.28;101578.78;4900390;28;47310;-74
2024/03/19 00:59:08;;;;;;;;;3.67;3.67;;;;;23.67;44.40;101586.25;4900581;28;45337;-74
2024/03/19 01:01:35;;;;;;;;;4.00;4.00;;;;;23.72;44.29;101597.16;4900900;28;45734;-74
2024/03/19 01:04:04;;;;;;;;;7.00;4.67;;;;;23.71;44.53;101584.88;4900824;28;45295;-74
2024/03/19 01:06:30;;;;;;;;;2.33;2.33;;;;;23.72;44.27;101591.03;4900538;28;46187;-74
2024/03/19 01:08:55;;;;;;;;;3.33;3.33;;;;;23.67;44.03;101578.28;4900422;28;45387;-75
2024/03/19 01:11:21;;;;;;;;;3.67;3.67;;;;;23.66;44.33;101576.59;4900094;28;45259;-74
2024/03/19 01:13:46;;;;;;;;;4.00;4.00;;;;;23.60;44.50;101564.84;4900742;28;45328;-74
2024/03/19 01:16:11;;;;;;;;;6.00;4.00;;;;;23.69;44.63;101581.56;4900344;28;45416;-74
2024/03/19 01:18:37;;;;;;;;;4.33;2.67;;;;;23.55;44.29;101553.09;4900504;29;45325;-74
2024/03/19 01:21:02;;;;;;;;;4.00;4.00;;;;;23.70;44.38;101580.59;4900297;28;45838;-74
2024/03/19 01:23:28;;;;;;;;;2.33;2.33;;;;;23.69;44.04;101575.44;4900456;28;45388;-74
2024/03/19 01:25:54;;;;;;;;;5.33;3.00;;;;;23.69;44.39;101578.09;4899994;28;46134;-74
2024/03/19 01:28:21;;;;;;;;;4.67;3.33;;;;;23.68;44.27;101571.94;4900104;28;45313;-75
2024/03/19 01:30:47;;;;;;;;;4.67;3.33;;;;;23.69;44.24;101567.47;4900380;28;45279;-74
2024/03/19 01:33:12;;;;;;;;;4.33;3.00;;;;;23.61;44.42;101552.38;4900393;28;45222;-74
2024/03/19 01:35:38;;;;;;;;;5.33;4.67;;;;;23.66;44.49;101558.00;4900109;28;45979;-74
2024/03/19 01:38:03;;;;;;;;;5.00;4.67;;;;;23.66;44.16;101555.34;4900270;28;45336;-73
2024/03/19 01:40:29;;;;;;;;;5.00;4.00;;;;;23.67;44.33;101566.81;4899971;28;45320;-74
2024/03/19 01:42:54;;;;;;;;;6.00;3.00;;;;;23.54;44.48;101535.50;4900409;28;45264;-74
2024/03/19 01:45:22;;;;;;;;;3.67;3.67;;;;;23.65;44.21;101556.38;4898748;29;47321;-74
2024/03/19 01:47:48;;;;;;;;;5.33;4.33;;;;;23.67;44.01;101558.84;4900084;28;45492;-74
2024/03/19 01:50:14;;;;;;;;;5.67;4.00;;;;;23.66;44.29;101552.69;4900105;28;45351;-74
2024/03/19 01:52:43;;;;;;;;;4.33;4.00;;;;;23.65;44.09;101535.13;4900065;29;45428;-74
2024/03/19 01:55:11;;;;;;;;;4.00;4.00;;;;;23.66;44.23;101539.41;4899487;28;46428;-73
2024/03/19 01:57:36;;;;;;;;;5.67;5.67;;;;;23.62;43.77;101532.81;4899797;28;45364;-74
2024/03/19 02:00:03;;;;;;;;;5.33;4.00;;;;;23.67;44.11;101535.75;4899944;28;45376;-74
2024/03/19 02:02:31;;;;;;;;;3.67;3.67;;;;;23.58;43.86;101526.16;4899781;28;45527;-74
2024/03/19 02:04:58;;;;;;;;;5.00;4.67;;;;;23.67;43.91;101541.06;4898995;28;45325;-74
2024/03/19 02:07:23;;;;;;;;;6.33;4.67;;;;;23.51;43.87;101510.94;4899580;28;45285;-73
2024/03/19 02:09:49;;;;;;;;;4.00;4.00;;;;;23.62;43.80;101527.50;4899442;28;45237;-74
2024/03/19 02:12:15;;;;;;;;;5.00;3.67;;;;;23.67;44.09;101532.28;4899774;28;45293;-74
2024/03/19 02:14:40;;;;;;;;;7.00;4.67;;;;;23.66;43.71;101530.59;4899514;29;47532;-74
2024/03/19 02:17:06;;;;;;;;;5.00;4.00;;;;;23.62;44.10;101522.19;4899582;29;45380;-74
2024/03/19 02:19:34;;;;;;;;;7.33;4.00;;;;;23.66;43.86;101541.22;4899657;28;45447;-74
2024/03/19 02:21:59;;;;;;;;;4.00;4.00;;;;;23.58;44.21;101529.66;4899622;28;45587;-74
2024/03/19 02:24:24;;;;;;;;;7.67;6.33;;;;;23.65;43.71;101539.59;4899049;28;45984;-74
2024/03/19 02:26:50;;;;;;;;;3.67;3.00;;;;;23.59;44.29;101533.16;4899359;28;50786;-74
2024/03/19 02:29:15;;;;;;;;;5.00;4.00;;;;;23.64;44.12;101544.06;4899591;28;45371;-74
2024/03/19 02:31:40;;;;;;;;;4.33;4.33;;;;;23.62;43.84;101540.78;4898271;29;45522;-74
2024/03/19 02:34:06;;;;;;;;;5.33;4.00;;;;;23.63;43.72;101548.56;4899488;28;46335;-74
2024/03/19 02:36:31;;;;;;;;;3.33;2.33;;;;;23.37;43.82;101503.66;4899338;28;45222;-74
2024/03/19 02:38:56;;;;;;;;;5.33;4.00;;;;;23.53;44.03;101529.34;4899101;28;45449;-74
2024/03/19 02:41:22;;;;;;;;;5.00;5.00;;;;;23.64;43.97;101538.75;4899467;28;45486;-74
2024/03/19 02:43:47;;;;;;;;;4.67;4.67;;;;;23.63;43.74;101535.28;4899026;28;52478;-74
2024/03/19 02:46:12;;;;;;;;;4.00;4.00;;;;;23.59;43.88;101531.31;4899383;28;45351;-75
2024/03/19 02:48:38;;;;;;;;;4.33;4.33;;;;;23.53;43.93;101524.03;4899576;28;45393;-74
2024/03/19 02:51:04;;;;;;;;;4.33;3.33;;;;;23.63;43.62;101539.75;4899234;28;45365;-74
2024/03/19 02:53:30;;;;;;;;;5.00;5.00;;;;;23.56;44.02;101530.84;4898833;29;45392;-74
2024/03/19 02:55:55;;;;;;;;;4.67;4.00;;;;;23.50;43.63;101508.44;4899281;28;45448;-74
2024/03/19 02:58:21;;;;;;;;;5.67;3.33;;;;;23.62;44.03;101522.19;4899316;28;45454;-74
2024/03/19 03:00:47;;;;;;;;;3.00;3.00;;;;;23.60;44.00;101522.34;4899097;28;45423;-74
2024/03/19 03:03:12;;;;;;;;;7.00;4.00;;;;;23.61;44.16;101520.50;4898782;28;46319;-74
2024/03/19 03:05:38;;;;;;;;;5.00;5.00;;;;;23.52;43.81;101509.94;4899011;28;45300;-74
2024/03/19 03:08:05;;;;;;;;;5.33;5.00;;;;;23.62;44.04;101528.31;4898609;28;45481;-75
2024/03/19 03:10:31;;;;;;;;;3.67;3.00;;;;;23.61;44.09;101529.31;4899124;28;45355;-73
2024/03/19 03:12:56;;;;;;;;;3.67;3.67;;;;;23.62;43.71;101530.16;4898720;28;46369;-74
2024/03/19 03:15:22;;;;;;;;;6.00;5.00;;;;;23.62;43.76;101532.81;4899176;29;45327;-73
2024/03/19 03:17:47;;;;;;;;;5.67;4.00;;;;;23.61;44.21;101526.66;4902516;28;45289;-74
2024/03/19 03:20:13;;;;;;;;;4.00;4.00;;;;;23.57;43.44;101520.06;4902413;28;45312;-74
2024/03/19 03:22:38;;;;;;;;;7.33;5.67;;;;;23.60;43.76;101521.53;4901889;28;46085;-74
2024/03/19 03:25:08;;;;;;;;;5.33;4.00;;;;;23.61;43.77;101529.31;4901962;28;45595;-74
2024/03/19 03:27:37;;;;;;;;;6.33;4.67;;;;;23.34;43.73;101480.94;4902184;28;45500;-74
2024/03/19 03:30:03;;;;;;;;;4.00;4.00;;;;;23.62;43.68;101516.88;4902262;28;45411;-74
2024/03/19 03:32:29;;;;;;;;;5.00;4.67;;;;;23.61;43.96;101534.63;4902029;28;46462;-74
2024/03/19 03:34:54;;;;;;;;;6.00;6.00;;;;;23.50;43.53;101519.06;4902087;28;45372;-74
2024/03/19 03:37:21;;;;;;;;;7.33;4.67;;;;;23.51;43.80;101523.38;4901933;28;45271;-74
2024/03/19 03:39:46;;;;;;;;;4.00;4.00;;;;;23.60;43.62;101540.94;4902075;28;45307;-74
2024/03/19 03:42:11;;;;;;;;;5.00;5.00;;;;;23.60;43.70;101534.81;4901773;29;46017;-74
2024/03/19 03:44:38;;;;;;;;;4.33;4.33;;;;;23.53;43.79;101529.34;4901850;28;45392;-74
2024/03/19 03:47:03;;;;;;;;;5.00;5.00;;;;;23.59;43.95;101533.16;4901822;28;45546;-74
2024/03/19 03:49:29;;;;;;;;;4.67;4.67;;;;;23.59;43.81;101531.31;4901575;28;45324;-74
2024/03/19 03:51:54;;;;;;;;;8.00;5.00;;;;;23.50;43.82;101527.88;4901582;28;45448;-74
2024/03/19 03:54:20;;;;;;;;;5.33;3.67;;;;;23.59;43.81;101538.47;4901983;28;45361;-74
2024/03/19 03:56:47;;;;;;;;;5.00;4.00;;;;;23.54;43.79;101528.34;4901946;28;45344;-74
2024/03/19 03:59:12;;;;;;;;;7.33;5.00;;;;;23.58;43.77;101534.13;4901839;28;45432;-74
2024/03/19 04:01:39;;;;;;;;;4.00;4.00;;;;;23.50;43.57;101524.38;4901671;28;45378;-74
2024/03/19 04:04:04;;;;;;;;;4.00;4.00;;;;;23.46;43.67;101523.06;4901312;28;45295;-74
2024/03/19 04:06:29;;;;;;;;;2.33;1.67;;;;;23.58;44.09;101544.75;4901783;28;45305;-74
2024/03/19 04:08:55;;;;;;;;;6.67;5.00;;;;;23.51;43.67;101542.81;4901709;28;45286;-74
2024/03/19 04:11:20;;;;;;;;;6.67;3.33;;;;;23.47;43.78;101544.13;4901348;28;46235;-74
2024/03/19 04:13:45;;;;;;;;;4.33;4.33;;;;;23.54;43.18;101552.25;4901902;28;45436;-74
2024/03/19 04:16:11;;;;;;;;;4.00;4.00;;;;;23.58;43.97;101547.41;4916780;28;45446;-74
2024/03/19 04:18:36;;;;;;;;;4.67;4.00;;;;;23.51;43.70;101534.00;4920240;28;45532;-74
2024/03/19 04:21:02;;;;;;;;;4.00;4.00;;;;;23.54;43.71;101548.78;4920381;28;45395;-74
2024/03/19 04:23:27;;;;;;;;;6.00;3.00;;;;;23.57;43.77;101556.41;4920575;28;45379;-74
2024/03/19 04:25:52;;;;;;;;;5.00;5.00;;;;;23.43;43.40;101534.84;4920015;28;45527;-74
2024/03/19 04:28:18;;;;;;;;;5.00;3.33;;;;;23.56;43.61;101555.56;4920239;28;45383;-74
2024/03/19 04:30:43;;;;;;;;;6.00;4.33;;;;;23.58;43.50;101552.72;4920027;28;46277;-74
2024/03/19 04:33:08;;;;;;;;;5.00;4.67;;;;;23.51;43.87;101549.94;4919557;28;54024;-74
2024/03/19 04:35:35;;;;;;;;;4.67;4.00;;;;;23.56;43.19;101558.22;4919228;28;45434;-74
2024/03/19 04:38:01;;;;;;;;;6.00;3.67;;;;;23.59;43.39;101567.69;4920327;28;45472;-74
2024/03/19 04:40:27;;;;;;;;;5.00;4.00;;;;;23.54;43.27;101562.88;4919830;28;46127;-74
2024/03/19 04:42:53;;;;;;;;;4.00;4.00;;;;;23.58;43.61;101568.66;4919987;28;45391;-73
2024/03/19 04:45:19;;;;;;;;;4.67;4.67;;;;;23.46;43.20;101555.75;4920243;28;45317;-74
2024/03/19 04:47:44;;;;;;;;;4.00;4.00;;;;;23.54;43.50;101564.72;4919856;28;45292;-74
2024/03/19 04:50:09;;;;;;;;;3.00;3.00;;;;;23.58;43.75;101573.97;4918606;28;46211;-74
2024/03/19 04:52:35;;;;;;;;;4.67;4.67;;;;;23.51;43.32;101568.53;4920187;28;45372;-74
2024/03/19 04:55:00;;;;;;;;;4.00;4.00;;;;;23.51;43.28;101560.56;4920131;28;45276;-74
2024/03/19 04:57:25;;;;;;;;;5.33;4.33;;;;;23.57;43.79;101572.34;4919938;28;45383;-73
2024/03/19 04:59:51;;;;;;;;;4.67;4.67;;;;;23.56;43.48;101574.16;4934443;28;47274;-74
2024/03/19 05:02:16;;;;;;;;;4.00;4.00;;;;;23.57;43.09;101569.69;4919414;28;45359;-74
2024/03/19 05:04:43;;;;;;;;;4.33;4.33;;;;;23.46;43.33;101557.56;4920012;28;45370;-74
2024/03/19 05:07:08;;;;;;;;;3.67;3.67;;;;;23.53;43.47;101569.19;4919894;28;45332;-74
2024/03/19 05:09:33;;;;;;;;;7.00;5.00;;;;;23.45;43.12;101555.91;4901318;28;45442;-74
2024/03/19 05:11:58;;;;;;;;;4.67;4.67;;;;;23.56;43.30;101578.63;4900331;28;45790;-74
2024/03/19 05:14:24;;;;;;;;;6.00;4.67;;;;;23.52;43.36;101571.00;4900702;28;45442;-74
2024/03/19 05:16:49;;;;;;;;;4.67;4.00;;;;;23.54;43.25;101578.00;4900142;28;45495;-74
2024/03/19 05:19:14;;;;;;;;;3.67;3.67;;;;;23.44;43.32;101560.41;4900348;28;47199;-73
2024/03/19 05:21:40;;;;;;;;;5.00;4.00;;;;;23.55;43.89;101582.31;4900475;28;45300;-73
2024/03/19 05:24:06;;;;;;;;;7.00;6.00;;;;;23.55;43.34;101584.97;4900486;28;45400;-74
2024/03/19 05:26:32;;;;;;;;;5.00;4.00;;;;;23.47;43.43;101570.66;4900373;28;45464;-74
2024/03/19 05:28:58;;;;;;;;;3.00;3.00;;;;;23.52;43.43;101576.31;4900123;28;45463;-73
2024/03/19 05:31:25;;;;;;;;;6.33;4.00;;;;;23.54;43.58;101583.31;4899866;28;45372;-74
2024/03/19 05:33:52;;;;;;;;;4.33;3.00;;;;;23.53;43.71;101587.78;4900434;28;45591;-74
2024/03/19 05:36:17;;;;;;;;;4.33;3.00;;;;;23.53;43.63;101585.13;4900259;28;45585;-74
2024/03/19 05:38:43;;;;;;;;;4.00;4.00;;;;;23.53;43.54;101585.13;4898816;28;46092;-74
2024/03/19 05:41:09;;;;;;;;;4.00;4.00;;;;;23.51;43.44;101581.81;4899918;28;45502;-74
2024/03/19 05:43:35;;;;;;;;;4.67;4.67;;;;;23.52;43.78;101578.19;4900258;29;45372;-74
2024/03/19 05:46:00;;;;;;;;;5.00;3.67;;;;;23.47;43.63;101572.53;4899821;28;45409;-74
2024/03/19 05:48:26;;;;;;;;;3.67;3.67;;;;;23.49;43.14;101576.69;4899816;28;47114;-74
2024/03/19 05:50:51;;;;;;;;;5.00;3.00;;;;;23.45;43.63;101569.19;4899971;28;45438;-74
2024/03/19 05:53:18;;;;;;;;;6.33;3.00;;;;;23.54;43.06;101589.44;4899999;28;45395;-74
2024/03/19 05:55:43;;;;;;;;;5.00;5.00;;;;;23.56;43.40;101594.56;4900071;28;45481;-74
2024/03/19 05:58:08;;;;;;;;;6.00;5.67;;;;;23.55;43.61;101592.94;4899720;28;45371;-74
2024/03/19 06:00:34;;;;;;;;;4.00;3.33;;;;;23.55;43.38;101598.25;4899340;28;45363;-74
2024/03/19 06:02:59;;;;;;;;;4.00;4.00;;;;;23.56;43.58;101597.22;4898451;29;47081;-74
2024/03/19 06:05:24;;;;;;;;;6.33;5.33;;;;;23.43;43.11;101585.31;4899790;28;45424;-74
2024/03/19 06:07:50;;;;;;;;;3.67;3.67;;;;;23.49;43.27;101589.09;4899544;28;47284;-74
2024/03/19 06:10:15;;;;;;;;;5.33;4.00;;;;;23.55;43.12;101591.09;4899661;29;45319;-75
2024/03/19 06:12:40;;;;;;;;;3.67;3.67;;;;;23.46;43.38;101584.13;4899695;28;45416;-74
2024/03/19 06:15:07;;;;;;;;;6.33;6.00;;;;;23.56;43.49;101605.19;4899230;28;45422;-75
2024/03/19 06:17:33;;;;;;;;;4.00;4.00;;;;;23.52;43.48;101599.41;4899510;28;46389;-74
2024/03/19 06:19:58;;;;;;;;;7.00;5.00;;;;;23.54;43.24;101605.38;4899409;28;45309;-75
2024/03/19 06:22:24;;;;;;;;;4.00;4.00;;;;;23.45;43.63;101591.28;4899722;28;45473;-74
2024/03/19 06:24:49;;;;;;;;;3.00;3.00;;;;;23.35;43.54;101586.16;4899694;28;45308;-74
2024/03/19 06:27:14;;;;;;;;;5.00;5.00;;;;;23.50;43.49;101615.50;4899316;28;46177;-74
2024/03/19 06:29:40;;;;;;;;;6.00;5.00;;;;;23.52;43.66;101623.34;4899148;28;45485;-74
2024/03/19 06:32:06;;;;;;;;;4.33;4.33;;;;;23.50;43.68;101623.47;4899610;28;45662;-73
2024/03/19 06:34:32;;;;;;;;;4.00;4.00;;;;;23.52;43.59;101633.94;4899399;28;45646;-74
2024/03/19 06:36:58;;;;;;;;;5.00;5.00;;;;;23.51;43.33;101634.94;4899203;28;46016;-74
2024/03/19 06:39:24;;;;;;;;;4.00;4.00;;;;;23.45;43.31;101623.13;4899276;28;45293;-74
2024/03/19 06:41:50;;;;;;;;;6.00;4.00;;;;;23.51;43.28;101629.63;4899530;28;45441;-74
2024/03/19 06:44:16;;;;;;;;;4.67;3.00;;;;;23.51;43.42;101627.81;4899105;28;45332;-74
2024/03/19 06:46:41;;;;;;;;;5.00;5.00;;;;;23.51;43.81;101630.47;4899211;28;46201;-74
2024/03/19 06:49:07;;;;;;;;;4.00;4.00;;;;;23.22;43.44;101594.66;4898772;28;45730;-74
2024/03/19 06:51:32;;;;;;;;;2.00;2.00;;;;;23.49;43.44;101640.44;4899258;29;45511;-74
2024/03/19 06:53:58;;;;;;;;;3.00;2.00;;;;;23.45;42.94;101631.09;4899186;28;45501;-74
2024/03/19 06:56:23;;;;;;;;;3.00;3.00;;;;;23.49;43.33;101643.09;4899076;28;45479;-74
2024/03/19 06:58:49;;;;;;;;;5.00;5.00;;;;;23.51;43.32;101640.25;4898748;28;45590;-74
2024/03/19 07:01:14;;;;;;;;;6.33;5.00;;;;;23.49;43.23;101637.78;4899145;28;45383;-74
2024/03/19 07:03:39;;;;;;;;;5.00;4.00;;;;;23.50;43.21;101643.91;4899157;28;45367;-74
2024/03/19 07:06:05;;;;;;;;;6.00;4.00;;;;;23.47;43.42;101642.38;4898651;28;51373;-74
2024/03/19 07:08:30;;;;;;;;;4.33;4.33;;;;;23.48;43.71;101641.38;4898751;28;45450;-74
2024/03/19 07:10:57;;;;;;;;;4.67;3.00;;;;;23.51;43.70;101645.56;4898937;28;45443;-74
2024/03/19 07:13:22;;;;;;;;;3.67;2.33;;;;;23.51;43.60;101651.72;4898696;28;45369;-75
2024/03/19 07:15:48;;;;;;;;;4.00;4.00;;;;;23.49;43.50;101647.53;4898728;28;45929;-74
2024/03/19 07:18:13;;;;;;;;;3.67;3.67;;;;;23.52;43.38;101649.88;4897923;28;45578;-74
2024/03/19 07:20:39;;;;;;;;;3.33;3.33;;;;;23.54;43.62;101655.03;4898614;29;45427;-74
2024/03/19 07:23:05;;;;;;;;;5.00;4.33;;;;;23.51;43.76;101648.22;4899066;29;45357;-75
2024/03/19 07:25:34;;;;;;;;;5.00;4.00;;;;;23.55;43.94;101664.66;4896396;28;47023;-74
2024/03/19 07:28:00;;;;;;;;;6.33;5.00;;;;;23.56;44.17;101655.66;4896840;29;45797;-74
2024/03/19 07:30:26;;;;;;;;;6.33;4.00;;;;;23.55;44.28;101657.50;4897961;28;45491;-75
2024/03/19 07:32:51;;;;;;;;;5.33;4.33;;;;;23.59;44.34;101663.31;4896386;28;45280;-75
2024/03/19 07:35:17;;;;;;;;;5.00;4.67;;;;;23.52;44.39;101648.03;4898671;28;45393;-75
2024/03/19 07:37:43;;;;;;;;;4.67;4.00;;;;;23.62;44.21;101666.47;4897984;29;45281;-75
2024/03/19 07:40:10;;;;;;;;;4.00;4.00;;;;;23.37;44.57;101633.78;4898650;28;45589;-75
2024/03/19 07:42:45;;;;;;;;;4.00;3.33;;;;;23.51;44.13;101651.72;4897856;28;45678;-75
2024/03/19 07:45:10;;;;;;;;;6.67;5.67;;;;;23.65;44.02;101675.91;4887969;28;46043;-76
2024/03/19 07:47:35;;;;;;;;;3.67;3.67;;;;;23.65;44.39;101683.88;4893166;29;45462;-75
2024/03/19 07:50:07;;;;;;;;;4.33;4.33;;;;;23.65;44.01;101680.38;4892639;28;45963;-75
2024/03/19 07:52:34;;;;;;;;;4.00;4.00;;;;;23.65;44.22;101683.88;4893718;29;45603;-76
2024/03/19 07:54:59;;;;;;;;;5.33;5.33;;;;;23.59;44.19;101677.41;4892329;29;46229;-75
2024/03/19 07:57:25;;;;;;;;;4.67;4.00;;;;;23.60;43.95;101675.59;4907363;28;45472;-75
2024/03/19 07:59:52;;;;;;;;;5.33;4.67;;;;;23.62;43.80;101673.59;4892992;28;45530;-75
2024/03/19 08:02:18;;;;;;;;;8.00;5.00;;;;;23.64;43.92;101687.53;4895186;29;45781;-75
2024/03/19 08:04:50;;;;;;;;;5.67;4.00;;;;;23.57;43.90;101667.97;4896188;28;46145;-75
2024/03/19 08:07:16;;;;;;;;;4.67;4.67;;;;;23.57;44.12;101674.09;4895482;29;45741;-75
2024/03/19 08:09:41;;;;;;;;;7.00;5.00;;;;;23.62;44.00;101686.88;4895624;28;45521;-76
2024/03/19 08:12:07;;;;;;;;;4.00;4.00;;;;;23.51;44.02;101672.13;4895620;29;45605;-78
2024/03/19 08:14:33;;;;;;;;;5.67;4.67;;;;;23.48;44.25;101670.59;4896314;28;46487;-77
2024/03/19 08:16:59;;;;;;;;;7.00;5.00;;;;;23.57;43.79;101678.59;4896438;29;45450;-76
2024/03/19 08:19:25;;;;;;;;;4.00;4.00;;;;;23.49;44.04;101664.34;4896149;29;45646;-77
2024/03/19 08:21:51;;;;;;;;;5.33;5.33;;;;;23.57;43.79;101681.25;4895944;29;45601;-75
2024/03/19 08:24:16;;;;;;;;;0.00;0.00;;;;;23.49;43.38;101672.31;4896063;29;45464;-76
2024/03/19 08:26:44;;;;;;;;;4.00;4.00;;;;;23.64;43.28;101692.84;4895875;29;45434;-76
2024/03/19 08:29:10;;;;;;;;;2.00;2.00;;;;;23.63;43.30;101688.50;4896530;29;45453;-76
2024/03/19 08:31:35;;;;;;;;;4.00;4.00;;;;;23.54;43.53;101670.94;4896555;29;45540;-76
2024/03/19 08:34:00;;;;;;;;;5.00;5.00;;;;;23.57;43.31;101673.28;4895803;28;45363;-75
2024/03/19 08:36:26;;;;;;;;;6.00;4.67;;;;;23.66;43.46;101690.84;4896192;29;45767;-76
2024/03/19 08:38:51;;;;;;;;;5.00;4.00;;;;;23.67;43.45;101692.50;4894485;29;45506;-76
2024/03/19 08:41:17;;;;;;;;;4.00;4.00;;;;;23.60;43.50;101683.56;4895144;29;45887;-76
2024/03/19 08:43:45;;;;;;;;;5.33;5.33;;;;;23.59;43.44;101687.22;4895759;29;46989;-76
2024/03/19 08:46:11;;;;;;;;;5.00;3.33;;;;;23.68;43.38;101702.13;4895916;29;45610;-75
2024/03/19 08:48:37;;;;;;;;;5.67;5.00;;;;;23.63;43.21;101693.81;4896604;28;45550;-76
2024/03/19 08:51:02;;;;;;;;;6.00;4.67;;;;;23.63;43.49;101697.31;4895457;28;46513;-75
2024/03/19 08:53:28;;;;;;;;;7.00;5.00;;;;;23.65;43.73;101696.34;4896137;29;45506;-75
2024/03/19 08:55:57;;;;;;;;;5.67;4.00;;;;;23.68;43.49;101693.34;4894975;29;45512;-75
2024/03/19 08:58:23;;;;;;;;;5.00;5.00;;;;;23.68;43.97;101696.81;4895670;29;45366;-75
2024/03/19 09:00:48;;;;;;;;;5.00;4.00;;;;;23.68;43.63;101694.16;4895470;29;45492;-75
2024/03/19 09:03:14;;;;;;;;;5.00;5.00;;;;;23.71;43.42;101699.13;4895649;28;46730;-76
2024/03/19 09:05:39;;;;;;;;;4.00;4.00;;;;;23.70;43.39;101697.47;4895550;29;45450;-75
2024/03/19 09:08:05;;;;;;;;;5.00;4.00;;;;;23.73;43.75;101706.94;4895750;29;45634;-76
2024/03/19 09:10:30;;;;;;;;;4.00;4.00;;;;;23.69;43.75;101693.16;4895351;28;45772;-76
2024/03/19 09:12:55;;;;;;;;;3.00;3.00;;;;;23.74;43.34;101695.28;4894986;28;45665;-76
2024/03/19 09:15:22;;;;;;;;;4.00;4.00;;;;;23.62;43.52;101681.56;4895523;28;45396;-76
2024/03/19 09:17:47;;;;;;;;;3.33;3.33;;;;;23.68;43.57;101690.69;4894807;28;45529;-76
2024/03/19 09:20:14;;;;;;;;;4.67;4.00;;;;;23.74;43.50;101700.59;4895477;28;45504;-76
2024/03/19 09:22:40;;;;;;;;;5.50;4.50;;;;;23.65;43.29;101686.53;4895486;29;46176;-76
2024/03/19 09:25:07;;;;;;;;;4.00;4.00;;;;;23.63;43.85;101677.88;4895481;28;45408;-76
2024/03/19 09:27:32;;;;;;;;;4.00;3.33;;;;;23.75;43.51;101702.28;4895461;28;45609;-77
2024/03/19 09:29:57;;;;;;;;;6.00;5.00;;;;;23.68;43.71;101699.47;4894960;28;45588;-75
2024/03/19 09:32:23;;;;;;;;;4.00;4.00;;;;;23.67;43.81;101704.97;4894764;28;46290;-76
2024/03/19 09:34:49;;;;;;;;;5.00;5.00;;;;;23.77;43.74;101716.22;4894746;29;45556;-76
2024/03/19 09:37:14;;;;;;;;;4.00;4.00;;;;;23.69;43.18;101700.28;4895084;28;45558;-75
2024/03/19 09:39:39;;;;;;;;;6.00;4.00;;;;;23.68;43.40;101704.78;4894286;29;45941;-77
2024/03/19 09:42:10;;;;;;;;;6.00;4.00;;;;;23.72;43.19;101706.09;4895689;29;47536;-76
2024/03/19 09:44:36;;;;;;;;;8.00;5.00;;;;;23.78;43.08;101725.84;4895639;29;45357;-76
2024/03/19 09:47:04;;;;;;;;;5.67;4.00;;;;;23.80;43.18;101731.81;4895071;28;45485;-76
2024/03/19 09:49:34;;;;;;;;;5.33;5.33;;;;;23.71;43.47;101717.72;4894920;29;45773;-76
2024/03/19 09:52:04;;;;;;;;;4.33;4.33;;;;;23.78;43.31;101717.06;4894156;28;46234;-75
2024/03/19 09:54:31;;;;;;;;;2.00;2.00;;;;;23.71;43.31;101711.56;4894423;29;46298;-75
2024/03/19 09:56:57;;;;;;;;;3.33;3.33;;;;;23.84;43.17;101740.25;4894716;29;45715;-77
2024/03/19 09:59:25;;;;;;;;;5.33;4.00;;;;;23.85;43.28;101739.28;4894832;28;45479;-75
2024/03/19 10:01:50;;;;;;;;;3.67;3.67;;;;;23.65;42.84;101702.47;4894341;29;45573;-75
2024/03/19 10:04:16;;;;;;;;;5.33;4.00;;;;;23.85;43.18;101732.13;4894877;29;45586;-75
2024/03/19 10:06:43;;;;;;;;;3.00;3.00;;;;;23.79;43.20;101722.19;4894870;28;46497;-75
2024/03/19 10:09:08;;;;;;;;;4.33;4.00;;;;;23.83;43.16;101730.66;4894975;29;45429;-76
2024/03/19 10:11:35;;;;;;;;;5.00;4.00;;;;;23.85;43.00;101737.47;4894565;29;46942;-76
2024/03/19 10:14:00;;;;;;;;;3.00;2.00;;;;;23.78;43.18;101722.38;4894351;29;45499;-74
2024/03/19 10:16:26;;;;;;;;;4.33;3.00;;;;;23.70;43.05;101700.13;4894764;28;46154;-76
2024/03/19 10:18:52;;;;;;;;;4.00;4.00;;;;;23.80;42.89;101710.56;4894619;29;45475;-77
2024/03/19 10:21:17;;;;;;;;;3.67;3.67;;;;;23.86;43.14;101722.34;4894213;29;47376;-75
2024/03/19 10:23:43;;;;;;;;;4.00;4.00;;;;;23.85;43.22;101723.34;4893719;29;47229;-76
2024/03/19 10:26:08;;;;;;;;;2.00;2.00;;;;;23.85;43.52;101723.34;4893904;29;45684;-74
2024/03/19 10:28:36;;;;;;;;;5.33;4.00;;;;;23.80;43.18;101715.88;4894691;29;45520;-76
2024/03/19 10:31:03;;;;;;;;;4.00;4.00;;;;;23.79;43.64;101716.88;4894199;29;46517;-76
2024/03/19 10:33:29;;;;;;;;;5.00;5.00;;;;;23.71;43.24;101700.94;4894266;29;45749;-75
2024/03/19 10:35:56;;;;;;;;;3.00;3.00;;;;;23.87;43.47;101723.97;4893596;28;45458;-75
2024/03/19 10:38:23;;;;;;;;;5.00;4.00;;;;;23.87;42.89;101713.34;4893998;29;45610;-75
2024/03/19 10:40:48;;;;;;;;;4.67;4.00;;;;;23.89;43.12;101713.19;4893612;29;45512;-76
2024/03/19 10:43:18;;;;;;;;;3.00;3.00;;;;;23.89;42.95;101714.00;4894215;29;45719;-75
2024/03/19 10:45:48;;;;;;;;;5.00;4.67;;;;;23.90;43.03;101718.34;4893925;29;45590;-75
2024/03/19 10:48:15;;;;;;;;;3.67;3.67;;;;;23.92;43.16;101707.53;4894066;29;45502;-76
2024/03/19 10:50:43;;;;;;;;;4.00;4.00;;;;;23.81;43.46;101693.59;4893339;29;46890;-75
2024/03/19 10:53:13;;;;;;;;;3.67;3.67;;;;;23.93;43.67;101703.88;4894263;29;45578;-76
2024/03/19 10:55:41;;;;;;;;;4.33;3.00;;;;;23.94;43.25;101698.38;4894151;29;45431;-76
2024/03/19 10:58:11;;;;;;;;;6.67;3.00;;;;;23.96;43.15;101699.06;4894564;29;45641;-77
2024/03/19 11:00:40;;;;;;;;;4.33;4.00;;;;;23.94;43.09;101682.44;4892639;29;46958;-75
2024/03/19 11:03:06;;;;;;;;;3.33;3.33;;;;;23.89;43.17;101668.03;4892968;29;45784;-76
2024/03/19 11:05:33;;;;;;;;;3.67;3.67;;;;;24.00;43.04;101696.03;4893678;28;46179;-76
2024/03/19 11:07:58;;;;;;;;;3.00;3.00;;;;;24.03;43.02;101695.69;4893229;28;45958;-75
2024/03/19 11:10:35;;;;;;;;;4.67;3.33;;;;;23.90;43.15;101677.63;4893311;28;46500;-75
2024/03/19 11:13:06;;;;;;;;;5.00;3.67;;;;;24.06;43.17;101700.66;4892808;29;45481;-75
2024/03/19 11:15:32;;;;;;;;;3.00;3.00;;;;;23.74;43.19;101653.63;4893337;28;45515;-75
2024/03/19 11:18:03;;;;;;;;;3.00;3.00;;;;;23.96;43.00;101685.75;4893483;28;45691;-75